Time;durP1;ratioP1;P1;durP2;ratioP2;P2;SDS_P1;SDS_P2;PMS_P1;PMS_P2;Temp;Humidity;BMP_temperature;BMP_pressure;BME280_temperature;BME280_humidity;BME280_pressure;Samples;Min_cycle;Max_cycle;Signal;HPM_P1;HPM_P2
2024/01/12 00:00:28;;;;;;;33.38;14.85;;;;;;;3.68;85.51;103246.47;5025702;28;20125;-92
2024/01/12 00:03:04;;;;;;;;;;;;;;;;;;;;;
2024/01/12 00:05:35;;;;;;;33.45;15.38;;;;;;;3.83;86.20;103285.03;5043573;28;20109;-91
2024/01/12 00:08:14;;;;;;;29.15;14.73;;;;;;;3.73;86.43;103265.13;5043151;28;20084;-91
2024/01/12 00:10:42;;;;;;;31.10;14.90;;;;;;;3.61;86.46;103246.78;5009823;28;20045;-90
2024/01/12 00:13:08;;;;;;;30.10;15.18;;;;;;;3.63;85.99;103246.88;5042150;28;20441;-89
2024/01/12 00:15:41;;;;;;;31.00;14.50;;;;;;;3.95;87.08;103307.81;5018887;28;20091;-90
2024/01/12 00:18:07;;;;;;;31.15;14.80;;;;;;;3.76;86.53;103255.78;5019292;28;20374;-89
2024/01/12 00:20:42;;;;;;;30.30;15.27;;;;;;;3.90;86.16;103274.25;5018109;28;20032;-89
2024/01/12 00:23:09;;;;;;;30.55;14.52;;;;;;;3.86;86.02;103270.50;5036013;28;20029;-89
2024/01/12 00:25:39;;;;;;;30.98;14.48;;;;;;;3.98;85.72;103280.97;5036582;28;20037;-89
2024/01/12 00:28:08;;;;;;;29.70;14.80;;;;;;;3.96;85.42;103277.34;5018154;28;20485;-90
2024/01/12 00:30:39;;;;;;;34.60;16.00;;;;;;;3.97;85.13;103273.91;5018568;28;20025;-89
2024/01/12 00:33:08;;;;;;;33.40;14.80;;;;;;;3.83;85.76;103244.09;5034243;28;20057;-89
2024/01/12 00:35:36;;;;;;;31.15;15.10;;;;;;;3.94;85.41;103285.06;5035652;28;20052;-90
2024/01/12 00:38:04;;;;;;;31.40;15.23;;;;;;;3.73;85.38;103242.50;5036153;28;20116;-89
2024/01/12 00:40:39;;;;;;;32.97;15.05;;;;;;;3.81;86.29;103260.44;5038163;28;20470;-90
2024/01/12 00:43:04;;;;;;;32.20;15.25;;;;;;;3.99;86.45;103302.03;5020069;28;20072;-90
2024/01/12 00:45:32;;;;;;;38.20;15.95;;;;;;;3.66;86.02;103260.19;5035374;28;20069;-90
2024/01/12 00:48:03;;;;;;;29.38;14.82;;;;;;;3.58;86.75;103251.75;5034807;28;20092;-90
2024/01/12 00:50:30;;;;;;;30.13;15.65;;;;;;;3.59;86.47;103258.78;5034768;28;20095;-90
2024/01/12 00:52:58;;;;;;;31.25;15.20;;;;;;;3.94;86.10;103302.44;5018281;28;20083;-90
2024/01/12 00:55:26;;;;;;;29.98;15.15;;;;;;;3.60;86.08;103249.25;5034317;28;20029;-90
2024/01/12 00:58:08;;;;;;;34.05;15.15;;;;;;;3.71;86.24;103271.91;5018481;28;20036;-90
2024/01/12 01:00:43;;;;;;;29.80;15.47;;;;;;;3.88;86.91;103300.28;5035652;28;20033;-89
2024/01/12 01:03:26;;;;;;;29.80;15.25;;;;;;;3.51;86.88;103245.16;5035477;28;20159;-90
2024/01/12 01:05:58;;;;;;;27.98;14.73;;;;;;;3.74;87.08;103288.75;5035824;28;20036;-90
2024/01/12 01:08:24;;;;;;;34.60;16.05;;;;;;;3.59;86.33;103271.88;5034201;28;20029;-90
2024/01/12 01:10:49;;;;;;;31.45;14.52;;;;;;;3.43;87.16;103272.41;5033924;28;20397;-90
2024/01/12 01:13:25;;;;;;;35.55;16.58;;;;;;;3.26;87.58;103268.44;5035326;28;20119;-90
2024/01/12 01:15:58;;;;;;;33.58;15.18;;;;;;;3.17;88.33;103254.66;5035407;28;20474;-90
2024/01/12 01:18:28;;;;;;;31.77;15.35;;;;;;;3.34;88.33;103284.75;5034122;28;20060;-90
2024/01/12 01:21:05;;;;;;;33.88;15.23;;;;;;;3.44;88.65;103295.13;5035067;28;20031;-90
2024/01/12 01:23:43;;;;;;;;;;;;;;;;;;;;;
2024/01/12 01:26:09;;;;;;;37.78;15.85;;;;;;;3.53;88.10;103287.09;5034888;28;20030;-90
2024/01/12 01:28:44;;;;;;;31.83;15.25;;;;;;;3.75;87.74;103324.56;5034169;28;20108;-90
2024/01/12 01:31:17;;;;;;;32.20;15.13;;;;;;;3.77;87.92;103327.31;5018329;28;20440;-91
2024/01/12 01:33:53;;;;;;;32.33;15.35;;;;;;;3.64;87.92;103314.06;5018347;28;20056;-90
2024/01/12 01:36:21;;;;;;;33.85;16.17;;;;;;;3.47;88.36;103284.00;5036311;28;20087;-91
2024/01/12 01:38:49;;;;;;;35.35;14.82;;;;;;;3.62;88.12;103310.41;5018611;28;20040;-91
2024/01/12 01:41:17;;;;;;;34.50;15.45;;;;;;;3.44;88.23;103305.56;5018684;28;20033;-90
2024/01/12 01:43:51;;;;;;;33.30;14.93;;;;;;;3.65;88.57;103352.50;5036093;28;20143;-90
2024/01/12 01:46:19;;;;;;;35.10;15.65;;;;;;;3.42;88.08;103314.97;4985969;28;20047;-91
2024/01/12 01:48:47;;;;;;;32.20;15.13;;;;;;;3.35;88.18;103293.47;5036649;28;20029;-90
2024/01/12 01:54:07;;;;;;;35.47;14.82;;;;;;;3.47;87.59;103290.13;5036775;28;20045;-90
2024/01/12 01:56:35;;;;;;;30.80;13.88;;;;;;;3.55;88.08;103295.03;5036222;28;20041;-91
2024/01/12 01:59:09;;;;;;;31.42;14.02;;;;;;;3.77;88.15;103343.00;5036217;28;20033;-90
2024/01/12 02:01:34;;;;;;;31.88;14.38;;;;;;;3.60;87.92;103323.38;5036245;28;20030;-91
2024/01/12 02:04:14;;;;;;;;;;;;;;;;;;;;;
2024/01/12 02:06:43;;;;;;;31.40;14.32;;;;;;;3.55;88.14;103310.72;5035655;28;20031;-91
2024/01/12 02:09:16;;;;;;;33.63;14.05;;;;;;;3.51;88.03;103305.28;5034837;28;20032;-91
2024/01/12 02:12:09;;;;;;;33.08;14.52;;;;;;;3.47;88.18;103294.47;5041130;28;20034;-90
2024/01/12 02:14:38;;;;;;;28.42;13.68;;;;;;;3.44;88.51;103294.22;5031706;28;20013;-90
2024/01/12 02:17:06;;;;;;;29.42;14.52;;;;;;;3.44;89.29;103291.59;5044955;28;20529;-90
2024/01/12 02:19:31;;;;;;;31.30;13.93;;;;;;;3.42;89.35;103280.09;5019149;28;20136;-91
2024/01/12 02:22:19;;;;;;;31.45;14.68;;;;;;;3.46;88.23;103283.06;5035993;28;20131;-91
2024/01/12 02:24:47;;;;;;;31.45;14.60;;;;;;;3.66;88.40;103316.00;5035323;28;20032;-90
2024/01/12 02:27:25;;;;;;;;;;;;;;;;;;;;;
2024/01/12 02:29:57;;;;;;;30.25;14.07;;;;;;;3.65;87.98;103305.44;5036032;28;20057;-91
2024/01/12 02:32:31;;;;;;;32.20;14.13;;;;;;;3.32;88.24;103260.16;5009397;28;20470;-90
2024/01/12 02:34:57;;;;;;;29.88;14.80;;;;;;;3.43;89.03;103293.31;5016439;28;20048;-91
2024/01/12 02:37:30;;;;;;;32.38;14.63;;;;;;;3.56;88.52;103315.19;5032344;28;20393;-91
2024/01/12 02:40:09;;;;;;;29.67;14.38;;;;;;;3.68;88.81;103332.75;5017067;28;20057;-91
2024/01/12 02:42:46;;;;;;;31.13;15.35;;;;;;;3.56;88.69;103317.81;5034258;28;20052;-91
2024/01/12 02:45:24;;;;;;;28.20;14.40;;;;;;;3.53;88.45;103325.38;5033676;28;20386;-91
2024/01/12 02:47:54;;;;;;;28.73;14.52;;;;;;;3.31;89.10;103296.66;5032513;28;20104;-91
2024/01/12 02:50:23;;;;;;;28.92;14.45;;;;;;;3.23;88.91;103294.31;5033777;28;20034;-91
2024/01/12 02:52:58;;;;;;;31.92;14.57;;;;;;;3.26;89.58;103296.28;5032572;28;20091;-90
2024/01/12 02:55:26;;;;;;;32.08;15.05;;;;;;;3.45;90.38;103322.16;5032874;28;20034;-91
2024/01/12 02:58:01;;;;;;;31.02;14.57;;;;;;;3.44;90.06;103315.13;5032301;28;20041;-90
2024/01/12 03:00:34;;;;;;;29.27;14.23;;;;;;;3.38;89.76;103293.69;5032443;28;20038;-90
2024/01/12 03:03:04;;;;;;;28.98;15.05;;;;;;;3.30;90.01;103277.44;5033866;28;20112;-90
2024/01/12 03:05:31;;;;;;;34.05;15.15;;;;;;;3.35;90.05;103273.50;5033589;28;20458;-89
2024/01/12 03:08:09;;;;;;;;;;;;;;;;;;;;;
2024/01/12 03:10:34;;;;;;;31.30;15.50;;;;;;;3.35;90.41;103268.25;5034184;28;20480;-91
2024/01/12 03:13:10;;;;;;;30.73;14.77;;;;;;;3.36;90.37;103283.13;5033032;28;20029;-90
2024/01/12 03:15:47;;;;;;;36.35;14.48;;;;;;;3.21;90.49;103247.94;5033381;28;20428;-90
2024/01/12 03:18:14;;;;;;;33.58;15.70;;;;;;;3.24;90.11;103243.88;5031874;28;20033;-90
2024/01/12 03:21:02;;;;;;;;;;;;;;;;;;;;;
2024/01/12 03:23:35;;;;;;;33.10;14.35;;;;;;;3.54;89.84;103304.59;5032526;28;20343;-89
2024/01/12 03:26:12;;;;;;;31.83;14.55;;;;;;;3.38;89.98;103265.88;5015899;28;20095;-90
2024/01/12 03:28:37;;;;;;;27.55;13.82;;;;;;;3.48;90.38;103283.22;5033555;28;20064;-90
2024/01/12 03:31:11;;;;;;;30.50;14.20;;;;;;;3.38;90.10;103267.56;5033202;28;20069;-89
2024/01/12 03:33:47;;;;;;;;;;;;;;;;;;;;;
2024/01/12 03:36:13;;;;;;;26.85;14.38;;;;;;;3.43;90.02;103285.47;5053966;28;20041;-90
2024/01/12 03:38:38;;;;;;;33.17;14.93;;;;;;;3.52;90.13;103295.72;5054230;28;20429;-90
2024/01/12 03:41:05;;;;;;;31.90;15.23;;;;;;;3.58;89.78;103295.28;5036642;28;20033;-90
2024/01/12 03:43:31;;;;;;;32.75;14.73;;;;;;;3.60;90.06;103288.47;5035967;28;20421;-90
2024/01/12 03:45:56;;;;;;;27.33;14.52;;;;;;;3.55;90.30;103288.09;5057888;28;20461;-90
2024/01/12 03:48:21;;;;;;;30.23;13.95;;;;;;;3.54;89.66;103290.59;5040492;28;20065;-90
2024/01/12 03:50:47;;;;;;;31.42;14.43;;;;;;;3.34;90.07;103282.13;5057972;28;20029;-90
2024/01/12 03:53:12;;;;;;;29.77;14.63;;;;;;;3.35;90.76;103296.09;5039873;28;20064;-89
2024/01/12 03:55:38;;;;;;;30.38;15.15;;;;;;;3.34;91.06;103287.34;5040074;28;20074;-89
2024/01/12 03:58:03;;;;;;;31.55;14.70;;;;;;;3.32;91.06;103291.53;5058154;28;20037;-89
2024/01/12 04:00:29;;;;;;;33.10;14.70;;;;;;;3.30;90.98;103280.06;5039595;28;20090;-89
2024/01/12 04:02:54;;;;;;;29.45;14.18;;;;;;;3.32;91.23;103278.47;5040093;28;20025;-90
2024/01/12 04:05:20;;;;;;;27.92;14.18;;;;;;;3.40;91.65;103286.91;5057968;28;20493;-90
2024/01/12 04:07:45;;;;;;;33.10;15.30;;;;;;;3.36;91.19;103258.72;5040097;28;20376;-90
2024/01/12 04:10:10;;;;;;;31.45;14.85;;;;;;;3.47;91.22;103270.94;5057566;28;20033;-90
2024/01/12 04:12:37;;;;;;;28.23;13.80;;;;;;;3.45;90.49;103275.13;5039855;28;20069;-90
2024/01/12 04:15:03;;;;;;;29.08;14.25;;;;;;;3.39;90.96;103272.03;5057777;28;20530;-90
2024/01/12 04:17:29;;;;;;;28.73;14.40;;;;;;;3.39;90.71;103277.25;5039910;28;20025;-90
2024/01/12 04:19:54;;;;;;;31.67;14.98;;;;;;;3.25;91.56;103265.69;5057541;28;20366;-89
2024/01/12 04:22:19;;;;;;;33.58;15.50;;;;;;;3.29;91.63;103286.03;5057612;28;20056;-90
2024/01/12 04:24:45;;;;;;;29.45;14.50;;;;;;;3.29;91.50;103270.38;5039686;28;20075;-89
2024/01/12 04:27:10;;;;;;;32.58;15.40;;;;;;;3.32;91.62;103275.84;5039733;28;20041;-88
2024/01/12 04:29:35;;;;;;;32.75;15.35;;;;;;;3.35;92.00;103283.03;5057568;28;20091;-90
2024/01/12 04:32:01;;;;;;;28.88;14.18;;;;;;;3.39;91.78;103296.47;5050497;28;20051;-89
2024/01/12 04:34:26;;;;;;;29.05;14.70;;;;;;;3.37;91.03;103287.56;5037064;28;20064;-89
2024/01/12 04:36:53;;;;;;;27.33;14.45;;;;;;;3.40;91.88;103298.28;5020132;28;20045;-90
2024/01/12 04:39:19;;;;;;;29.88;15.23;;;;;;;3.28;91.93;103273.78;5036436;28;20044;-89
2024/01/12 04:41:45;;;;;;;28.92;14.98;;;;;;;3.32;91.56;103296.75;5035544;28;20033;-89
2024/01/12 04:44:10;;;;;;;33.88;15.27;;;;;;;3.28;92.16;103281.63;5018257;28;20083;-89
2024/01/12 04:46:37;;;;;;;28.65;14.52;;;;;;;3.27;91.91;103290.25;5017838;28;20034;-90
2024/01/12 04:49:02;;;;;;;28.25;15.52;;;;;;;3.29;92.66;103291.28;5036110;28;20045;-89
2024/01/12 04:51:27;;;;;;;31.33;15.80;;;;;;;3.21;92.69;103284.53;5035467;28;20366;-89
2024/01/12 04:53:53;;;;;;;30.60;14.60;;;;;;;3.24;92.23;103290.91;5017702;28;20036;-89
2024/01/12 04:56:18;;;;;;;32.88;15.40;;;;;;;3.22;92.28;103278.53;5000720;28;20143;-89
2024/01/12 04:58:43;;;;;;;31.58;14.50;;;;;;;3.24;92.22;103288.28;5017862;28;20120;-89
2024/01/12 05:01:09;;;;;;;27.27;14.02;;;;;;;3.18;92.69;103273.84;5036113;28;20374;-90
2024/01/12 05:03:34;;;;;;;30.25;14.95;;;;;;;3.32;93.19;103290.63;5001413;28;20168;-90
2024/01/12 05:06:00;;;;;;;28.73;13.50;;;;;;;3.38;92.31;103288.47;5001325;28;20485;-90
2024/01/12 05:08:25;;;;;;;28.92;14.48;;;;;;;3.41;91.90;103287.03;5035392;28;20056;-90
2024/01/12 05:10:50;;;;;;;29.30;14.40;;;;;;;3.39;92.40;103272.03;5017702;28;20041;-89
2024/01/12 05:13:16;;;;;;;29.02;13.98;;;;;;;3.42;91.78;103273.16;5017404;28;20373;-90
2024/01/12 05:15:41;;;;;;;27.73;14.27;;;;;;;3.42;92.67;103270.53;5017423;28;20083;-90
2024/01/12 05:18:06;;;;;;;30.23;14.18;;;;;;;3.41;91.84;103263.50;5035092;28;20033;-90
2024/01/12 05:20:32;;;;;;;25.65;13.02;;;;;;;3.51;92.13;103265.13;5017578;28;20040;-89
2024/01/12 05:22:57;;;;;;;27.65;13.80;;;;;;;3.53;92.04;103258.34;5035184;28;20545;-89
2024/01/12 05:25:23;;;;;;;32.35;14.15;;;;;;;3.60;91.74;103265.88;5017445;28;20037;-90
2024/01/12 05:27:48;;;;;;;28.05;13.93;;;;;;;3.56;91.58;103263.81;5017017;28;20041;-89
2024/01/12 05:30:13;;;;;;;28.20;13.60;;;;;;;3.46;91.87;103249.09;5034803;28;20069;-89
2024/01/12 05:32:39;;;;;;;33.80;14.50;;;;;;;3.44;91.76;103247.16;5026124;28;20144;-89
2024/01/12 05:35:04;;;;;;;30.95;15.00;;;;;;;3.54;92.41;103265.38;5033474;28;20033;-89
2024/01/12 05:37:30;;;;;;;29.15;13.77;;;;;;;3.51;92.22;103254.66;5034633;28;20056;-88
2024/01/12 05:39:55;;;;;;;28.50;13.98;;;;;;;3.44;92.02;103252.38;5033677;28;20461;-90
2024/01/12 05:42:21;;;;;;;25.08;12.60;;;;;;;3.48;92.19;103264.91;5034838;28;20032;-89
2024/01/12 05:44:47;;;;;;;28.02;13.68;;;;;;;3.46;92.18;103267.38;5033628;28;20033;-90
2024/01/12 05:47:12;;;;;;;29.38;14.40;;;;;;;3.44;91.21;103268.97;5034193;28;20427;-89
2024/01/12 05:49:37;;;;;;;28.70;12.63;;;;;;;3.49;92.09;103278.09;5035410;28;20029;-90
2024/01/12 05:52:03;;;;;;;26.33;13.15;;;;;;;3.52;92.56;103274.81;5018270;28;20033;-90
2024/01/12 05:54:29;;;;;;;25.08;12.73;;;;;;;3.54;91.62;103282.75;5034877;28;20038;-90
2024/01/12 05:56:54;;;;;;;28.70;13.23;;;;;;;3.47;91.81;103270.94;5034525;28;20462;-89
2024/01/12 05:59:19;;;;;;;29.98;13.30;;;;;;;3.51;92.08;103275.59;5034325;28;20033;-90
2024/01/12 06:01:46;;;;;;;27.63;13.38;;;;;;;3.46;91.81;103285.69;5035470;28;20033;-89
2024/01/12 06:04:11;;;;;;;25.67;13.50;;;;;;;3.43;92.36;103289.78;5034658;28;20029;-89
2024/01/12 06:06:39;;;;;;;25.95;11.73;;;;;;;3.23;92.52;103264.66;5035247;28;20105;-89
2024/01/12 06:09:05;;;;;;;27.65;12.40;;;;;;;3.25;92.98;103284.91;5035537;28;20094;-90
2024/01/12 06:11:30;;;;;;;25.50;12.10;;;;;;;3.26;93.55;103278.91;5034782;28;20069;-90
2024/01/12 06:13:55;;;;;;;26.15;12.15;;;;;;;3.27;93.42;103290.25;5036155;28;20048;-90
2024/01/12 06:16:21;;;;;;;25.52;12.27;;;;;;;3.22;93.33;103276.84;5035278;28;20061;-90
2024/01/12 06:18:46;;;;;;;30.05;12.40;;;;;;;3.26;93.95;103278.91;5034566;28;20041;-90
2024/01/12 06:21:11;;;;;;;23.45;11.50;;;;;;;3.36;93.60;103292.69;5018325;28;20492;-89
2024/01/12 06:23:37;;;;;;;22.98;11.00;;;;;;;3.33;93.59;103288.13;5036155;28;20462;-89
2024/01/12 06:26:02;;;;;;;27.90;11.30;;;;;;;3.32;93.68;103288.91;5000563;28;20128;-89
2024/01/12 06:28:27;;;;;;;25.50;10.55;;;;;;;3.44;93.84;103300.34;5034327;28;20026;-89
2024/01/12 06:30:53;;;;;;;27.55;11.05;;;;;;;3.42;94.00;103304.53;5034135;28;20033;-89
2024/01/12 06:33:20;;;;;;;26.77;10.90;;;;;;;3.33;93.53;103281.97;5032233;28;20575;-89
2024/01/12 06:35:45;;;;;;;25.42;10.73;;;;;;;3.38;93.95;103301.53;5032444;28;20063;-89
2024/01/12 06:38:11;;;;;;;26.52;11.35;;;;;;;3.42;94.06;103301.91;5033798;28;20034;-89
2024/01/12 06:40:38;;;;;;;31.65;12.93;;;;;;;3.47;94.53;103302.31;5033544;28;20029;-89
2024/01/12 06:43:04;;;;;;;26.77;12.07;;;;;;;3.59;93.92;103307.56;5034238;28;20029;-89
2024/01/12 06:45:29;;;;;;;26.48;12.30;;;;;;;3.60;93.10;103309.38;5032481;28;20029;-89
2024/01/12 06:47:55;;;;;;;23.98;11.10;;;;;;;3.61;93.53;103313.84;5033884;28;20367;-88
2024/01/12 06:50:20;;;;;;;26.27;11.73;;;;;;;3.58;93.52;103309.25;5034335;28;20033;-88
2024/01/12 06:52:45;;;;;;;27.17;12.10;;;;;;;3.62;93.71;103319.16;5033992;28;20378;-89
2024/01/12 06:55:11;;;;;;;28.63;11.82;;;;;;;3.65;93.27;103310.66;5034884;28;20112;-89
2024/01/12 06:57:36;;;;;;;26.70;11.73;;;;;;;3.65;93.14;103305.44;5017190;28;20462;-90
2024/01/12 07:00:04;;;;;;;26.30;11.10;;;;;;;3.75;93.36;103313.19;5035198;28;20037;-90
2024/01/12 07:02:29;;;;;;;22.98;10.68;;;;;;;3.73;92.56;103304.34;5033696;28;20193;-89
2024/01/12 07:04:54;;;;;;;27.63;10.90;;;;;;;3.65;92.55;103287.13;5034189;28;20101;-90
2024/01/12 07:07:20;;;;;;;22.98;10.07;;;;;;;3.71;92.26;103311.13;5035002;28;20041;-90
2024/01/12 07:09:45;;;;;;;21.63;9.63;;;;;;;3.72;92.52;103300.78;5033860;28;20044;-90
2024/01/12 07:12:11;;;;;;;20.60;10.13;;;;;;;3.75;92.45;103310.59;5017048;28;20033;-89
2024/01/12 07:14:36;;;;;;;30.95;10.95;;;;;;;3.79;92.13;103303.91;5032264;28;20470;-90
2024/01/12 07:17:02;;;;;;;29.00;10.65;;;;;;;3.78;92.71;103302.09;5032253;28;20115;-90
2024/01/12 07:19:27;;;;;;;22.13;8.98;;;;;;;3.77;92.91;103298.56;5033977;28;20034;-90
2024/01/12 07:21:52;;;;;;;24.15;10.10;;;;;;;3.76;92.47;103288.88;5036629;28;20454;-90
2024/01/12 07:24:18;;;;;;;21.58;9.98;;;;;;;3.69;92.81;103286.59;5037498;28;20087;-90
2024/01/12 07:26:43;;;;;;;28.15;11.18;;;;;;;3.68;93.12;103277.84;5037392;28;20037;-90
2024/01/12 07:29:08;;;;;;;24.92;10.65;;;;;;;3.75;92.68;103284.44;5038570;28;20132;-90
2024/01/12 07:31:36;;;;;;;27.50;10.32;;;;;;;3.78;93.24;103286.38;5038890;28;20053;-90
2024/01/12 07:34:03;;;;;;;23.38;9.50;;;;;;;3.76;92.21;103291.47;5005079;28;20367;-91
2024/01/12 07:36:29;;;;;;;24.23;10.07;;;;;;;3.74;93.39;103286.16;5021218;28;20029;-89
2024/01/12 07:38:54;;;;;;;25.98;10.23;;;;;;;3.79;93.31;103285.59;5038523;28;20036;-90
2024/01/12 07:41:20;;;;;;;19.02;9.20;;;;;;;3.86;92.49;103275.72;5020822;28;20112;-91
2024/01/12 07:43:45;;;;;;;28.05;9.25;;;;;;;3.87;92.51;103281.88;5021128;28;20034;-91
2024/01/12 07:46:15;;;;;;;26.52;9.57;;;;;;;3.92;92.34;103281.41;5004233;28;20061;-90
2024/01/12 07:48:41;;;;;;;40.45;16.85;;;;;;;3.95;92.61;103296.44;5038750;28;20030;-91
2024/01/12 07:51:06;;;;;;;25.77;10.57;;;;;;;4.01;92.97;103294.28;5040411;28;20163;-91
2024/01/12 07:53:31;;;;;;;25.17;9.55;;;;;;;3.97;92.41;103284.38;5035007;28;20034;-90
2024/01/12 07:55:57;;;;;;;22.15;9.30;;;;;;;3.94;92.46;103285.06;5039041;28;20474;-90
2024/01/12 07:58:22;;;;;;;26.90;10.07;;;;;;;3.95;92.60;103284.28;5055872;28;20051;-90
2024/01/12 08:00:48;;;;;;;22.13;10.10;;;;;;;3.98;92.46;103274.06;5037851;28;20083;-90
2024/01/12 08:03:14;;;;;;;23.90;9.90;;;;;;;3.94;92.34;103271.06;5053966;28;20061;-91
2024/01/12 08:05:39;;;;;;;19.75;8.63;;;;;;;3.93;92.42;103279.72;5022884;28;20033;-90
2024/01/12 08:08:05;;;;;;;22.70;9.05;;;;;;;3.87;91.52;103282.78;5038375;28;20025;-90
2024/01/12 08:10:31;;;;;;;24.42;9.05;;;;;;;3.89;92.02;103289.03;5020005;28;20041;-86
2024/01/12 08:12:56;;;;;;;19.95;9.38;;;;;;;3.89;92.02;103280.25;5036553;28;20030;-89
2024/01/12 08:15:21;;;;;;;21.38;10.77;;;;;;;3.93;93.70;103287.56;5019909;28;20421;-91
2024/01/12 08:17:47;;;;;;;23.08;9.60;;;;;;;3.97;92.88;103293.13;5036720;28;20037;-94
2024/01/12 08:20:12;;;;;;;21.77;8.85;;;;;;;3.97;92.49;103297.47;5002237;28;20069;-94
2024/01/12 08:22:37;;;;;;;31.00;10.45;;;;;;;3.93;92.53;103283.22;5021798;28;20108;-91
2024/01/12 08:25:03;;;;;;;22.45;9.27;;;;;;;3.96;92.53;103287.81;5036636;28;20045;-92
2024/01/12 08:27:29;;;;;;;29.25;11.05;;;;;;;3.92;92.87;103281.41;5037689;28;20089;-93
2024/01/12 08:29:55;;;;;;;23.45;9.27;;;;;;;3.91;93.22;103284.84;5036473;28;20033;-91
2024/01/12 08:32:20;;;;;;;22.50;9.85;;;;;;;3.90;92.75;103283.03;5021643;28;20052;-92
2024/01/12 08:34:47;;;;;;;22.55;9.85;;;;;;;3.94;92.94;103297.22;5020567;28;20045;-91
2024/01/12 08:37:13;;;;;;;25.55;8.77;;;;;;;3.96;92.85;103291.31;5037863;28;20042;-93
2024/01/12 08:39:38;;;;;;;19.52;9.73;;;;;;;4.01;93.90;103302.13;5036215;28;20042;-95
2024/01/12 08:42:04;;;;;;;24.83;9.77;;;;;;;4.01;93.43;103302.13;5038057;28;20091;-95
2024/01/12 08:44:29;;;;;;;22.80;9.27;;;;;;;3.98;92.79;103308.06;5004062;28;20057;-94
2024/01/12 08:46:54;;;;;;;26.15;10.27;;;;;;;3.97;93.55;103313.16;5037098;28;20121;-92
2024/01/12 08:49:22;;;;;;;24.83;10.50;;;;;;;3.96;93.38;103314.88;5036340;28;20036;-94
2024/01/12 08:51:48;;;;;;;30.00;12.05;;;;;;;3.92;93.71;103304.97;5036656;28;20059;-94
2024/01/12 08:54:14;;;;;;;25.85;11.07;;;;;;;3.97;93.82;103300.06;5035519;28;20540;-94
2024/01/12 08:56:40;;;;;;;23.75;10.35;;;;;;;3.90;93.84;103287.34;5035833;28;20087;-93
2024/01/12 08:59:06;;;;;;;26.17;10.25;;;;;;;3.97;94.28;103298.38;5019310;28;20033;-93
2024/01/12 09:01:31;;;;;;;26.95;11.27;;;;;;;3.98;93.63;103288.81;5034989;28;20116;-94
2024/01/12 09:03:56;;;;;;;29.55;11.00;;;;;;;4.03;93.38;103295.34;5037033;28;20060;-94
2024/01/12 09:06:23;;;;;;;35.05;10.95;;;;;;;4.08;92.90;103293.97;5019171;28;20040;-94
2024/01/12 09:08:51;;;;;;;27.20;11.43;;;;;;;4.01;93.54;103283.81;5037519;28;20034;-95
2024/01/12 09:11:17;;;;;;;27.35;11.15;;;;;;;4.10;93.65;103296.69;5035814;28;20049;-94
2024/01/12 09:13:42;;;;;;;29.80;11.90;;;;;;;4.08;93.08;103287.84;5018914;28;20060;-95
2024/01/12 09:16:09;;;;;;;30.58;10.93;;;;;;;4.13;93.12;103290.00;5036599;28;20037;-96
2024/01/12 09:18:34;;;;;;;26.00;10.90;;;;;;;4.17;92.68;103291.16;5035580;28;20489;-96
2024/01/12 09:20:59;;;;;;;23.15;9.82;;;;;;;4.16;93.21;103303.31;5037247;28;20037;-95
2024/01/12 09:23:25;;;;;;;23.83;10.52;;;;;;;4.19;92.63;103305.25;5019474;28;20482;-95
2024/01/12 09:25:52;;;;;;;30.63;10.48;;;;;;;4.20;92.18;103297.53;5019326;28;20025;-95
2024/01/12 09:28:17;;;;;;;25.27;10.38;;;;;;;4.20;92.64;103287.06;5036942;28;20040;-95
2024/01/12 09:30:44;;;;;;;19.42;9.63;;;;;;;4.20;92.87;103297.53;5036174;28;20081;-95
2024/01/12 09:33:09;;;;;;;21.67;10.02;;;;;;;4.20;92.64;103294.00;5035906;28;20395;-94
2024/01/12 09:35:35;;;;;;;22.60;9.82;;;;;;;4.21;92.40;103293.19;5036784;28;20113;-95
2024/01/12 09:38:00;;;;;;;27.33;10.77;;;;;;;4.26;92.64;103303.22;5039087;28;20083;-95
2024/01/12 09:40:25;;;;;;;21.55;10.68;;;;;;;4.32;91.71;103292.28;5037184;28;20060;-95
2024/01/12 09:42:54;;;;;;;24.35;10.73;;;;;;;4.29;91.65;103286.84;5036614;28;20458;-95
2024/01/12 09:45:22;;;;;;;22.05;10.07;;;;;;;4.33;91.79;103291.53;5035581;28;20029;-95
2024/01/12 09:47:47;;;;;;;27.10;10.13;;;;;;;4.25;91.92;103290.94;5036264;28;20034;-94
2024/01/12 09:50:13;;;;;;;19.17;9.80;;;;;;;4.21;92.50;103291.50;5018730;28;20048;-95
2024/01/12 09:52:38;;;;;;;25.85;9.75;;;;;;;4.22;91.96;103295.94;5036823;28;20034;-95
2024/01/12 09:55:06;;;;;;;21.48;9.90;;;;;;;4.25;91.73;103288.31;5035929;28;20029;-96
2024/01/12 09:57:33;;;;;;;20.20;9.55;;;;;;;4.29;92.45;103294.69;5034864;28;20025;-95
2024/01/12 10:00:01;;;;;;;23.13;9.75;;;;;;;4.29;92.00;103297.31;5034961;28;20124;-95
2024/01/12 10:02:27;;;;;;;24.67;10.23;;;;;;;4.26;91.72;103290.13;5035784;28;20033;-95
2024/01/12 10:04:52;;;;;;;21.73;9.90;;;;;;;4.14;92.95;103288.28;5036280;28;20474;-94
2024/01/12 10:07:18;;;;;;;23.92;10.23;;;;;;;4.04;93.32;103275.31;5018162;28;20037;-95
2024/01/12 10:09:43;;;;;;;21.00;9.82;;;;;;;4.09;93.38;103300.13;5036460;28;20068;-95
2024/01/12 10:12:08;;;;;;;23.33;10.35;;;;;;;4.09;93.30;103281.81;5018052;28;20044;-95
2024/01/12 10:14:34;;;;;;;22.58;9.18;;;;;;;4.14;93.50;103291.81;5018105;28;20506;-96
2024/01/12 10:17:00;;;;;;;23.55;9.90;;;;;;;4.13;93.61;103289.09;5033870;28;20033;-95
2024/01/12 10:19:26;;;;;;;27.55;10.70;;;;;;;4.17;93.79;103296.38;5018466;28;20038;-94
2024/01/12 10:21:52;;;;;;;27.20;10.70;;;;;;;4.18;93.83;103301.72;5034375;28;20040;-95
2024/01/12 10:24:18;;;;;;;25.92;10.68;;;;;;;4.15;93.71;103300.56;5035040;28;20037;-95
2024/01/12 10:26:48;;;;;;;27.85;11.68;;;;;;;4.19;93.63;103300.00;5035507;28;20060;-95
2024/01/12 10:29:17;;;;;;;24.90;11.18;;;;;;;4.18;94.43;103304.34;5034275;28;20029;-95
2024/01/12 10:31:44;;;;;;;24.35;10.15;;;;;;;4.19;94.01;103300.91;5037482;28;20026;-95
2024/01/12 10:34:11;;;;;;;25.63;10.10;;;;;;;4.18;93.59;103295.56;5056016;28;20135;-95
2024/01/12 10:36:41;;;;;;;26.73;9.80;;;;;;;4.21;94.20;103294.09;5055498;28;20090;-94
2024/01/12 10:39:11;;;;;;;24.00;10.93;;;;;;;4.24;94.01;103285.59;5055198;28;20485;-95
2024/01/12 10:41:39;;;;;;;27.15;10.13;;;;;;;4.24;94.21;103278.66;5019741;28;20167;-95
2024/01/12 10:44:06;;;;;;;25.45;9.75;;;;;;;4.31;93.60;103274.75;5054188;28;20036;-94
2024/01/12 10:46:44;;;;;;;27.70;10.75;;;;;;;4.35;93.91;103268.06;5056033;28;20056;-93
2024/01/12 10:49:14;;;;;;;23.55;9.55;;;;;;;4.39;93.40;103264.88;5038961;28;20124;-94
2024/01/12 10:51:52;;;;;;;23.80;9.15;;;;;;;4.49;92.73;103270.91;5037245;28;20041;-95
2024/01/12 10:54:28;;;;;;;22.17;9.35;;;;;;;4.52;92.67;103263.28;5054864;28;20029;-95
2024/01/12 10:56:55;;;;;;;24.45;9.57;;;;;;;4.44;92.64;103267.03;5059467;28;20033;-94
2024/01/12 10:59:22;;;;;;;23.42;9.07;;;;;;;4.49;92.22;103270.00;5059278;28;20033;-95
2024/01/12 11:01:48;;;;;;;23.08;8.55;;;;;;;4.46;92.24;103264.56;5040927;28;20045;-94
2024/01/12 11:04:15;;;;;;;23.30;8.68;;;;;;;4.49;92.11;103252.56;5041187;28;20364;-95
2024/01/12 11:06:45;;;;;;;22.90;8.98;;;;;;;4.58;92.10;103268.06;5023832;28;20496;-94
2024/01/12 11:09:12;;;;;;;21.55;8.10;;;;;;;4.60;91.67;103265.56;5040731;28;20029;-95
2024/01/12 11:11:47;;;;;;;22.88;8.30;;;;;;;4.50;92.17;103246.56;5058129;28;20086;-95
2024/01/12 11:14:15;;;;;;;23.90;8.57;;;;;;;4.60;91.63;103261.22;5040341;28;20033;-94
2024/01/12 11:16:41;;;;;;;22.85;8.75;;;;;;;4.58;91.29;103254.97;5040424;28;20033;-92
2024/01/12 11:19:15;;;;;;;21.77;8.27;;;;;;;4.55;92.03;103248.63;5039905;28;20457;-95
2024/01/12 11:21:42;;;;;;;23.50;8.77;;;;;;;4.47;91.09;103243.72;5058106;28;20377;-95
2024/01/12 11:24:11;;;;;;;21.80;8.65;;;;;;;4.53;91.90;103258.94;5058380;28;20029;-95
2024/01/12 11:26:37;;;;;;;20.85;8.35;;;;;;;4.53;91.83;103264.19;5040049;28;20037;-95
2024/01/12 11:29:03;;;;;;;24.58;8.38;;;;;;;4.52;91.97;103252.81;5023296;28;20044;-96
2024/01/12 11:31:29;;;;;;;19.05;8.45;;;;;;;4.53;92.34;103261.56;5023678;28;20071;-95